sensor_id;sensor_type;location;lat;lon;timestamp;P1;durP1;ratioP1;P2;durP2;ratioP2
40541;SDS011;49288;52.194;5.676;2023-08-21T00:04:40;8.27;;;2.67;;
40541;SDS011;49288;52.194;5.676;2023-08-21T00:09:43;10.13;;;2.80;;
40541;SDS011;49288;52.194;5.676;2023-08-21T00:14:47;8.43;;;2.47;;
40541;SDS011;49288;52.194;5.676;2023-08-21T00:19:50;8.38;;;3.10;;
40541;SDS011;49288;52.194;5.676;2023-08-21T00:24:53;6.45;;;2.60;;
40541;SDS011;49288;52.194;5.676;2023-08-21T00:29:58;11.43;;;2.80;;
40541;SDS011;49288;52.194;5.676;2023-08-21T00:35:02;7.38;;;3.03;;
40541;SDS011;49288;52.194;5.676;2023-08-21T00:40:06;9.65;;;3.22;;
40541;SDS011;49288;52.194;5.676;2023-08-21T00:45:11;9.80;;;2.83;;
40541;SDS011;49288;52.194;5.676;2023-08-21T00:50:14;10.90;;;2.90;;
40541;SDS011;49288;52.194;5.676;2023-08-21T00:55:17;13.25;;;3.00;;
40541;SDS011;49288;52.194;5.676;2023-08-21T01:00:20;7.05;;;2.83;;
40541;SDS011;49288;52.194;5.676;2023-08-21T01:05:24;8.23;;;2.67;;
40541;SDS011;49288;52.194;5.676;2023-08-21T01:10:32;8.80;;;2.60;;
40541;SDS011;49288;52.194;5.676;2023-08-21T01:16:02;8.90;;;3.00;;
40541;SDS011;49288;52.194;5.676;2023-08-21T01:21:07;11.95;;;3.00;;
40541;SDS011;49288;52.194;5.676;2023-08-21T01:26:10;12.38;;;2.95;;
40541;SDS011;49288;52.194;5.676;2023-08-21T01:31:26;7.63;;;2.75;;
40541;SDS011;49288;52.194;5.676;2023-08-21T01:36:34;9.00;;;3.35;;
40541;SDS011;49288;52.194;5.676;2023-08-21T01:41:37;9.97;;;2.70;;
40541;SDS011;49288;52.194;5.676;2023-08-21T01:46:40;9.88;;;3.00;;
40541;SDS011;49288;52.194;5.676;2023-08-21T01:51:43;9.97;;;2.77;;
40541;SDS011;49288;52.194;5.676;2023-08-21T01:56:46;7.70;;;2.83;;
40541;SDS011;49288;52.194;5.676;2023-08-21T02:01:49;6.30;;;2.70;;
40541;SDS011;49288;52.194;5.676;2023-08-21T02:11:58;8.23;;;3.05;;
40541;SDS011;49288;52.194;5.676;2023-08-21T02:17:01;9.02;;;3.00;;
40541;SDS011;49288;52.194;5.676;2023-08-21T02:22:04;10.30;;;3.00;;
40541;SDS011;49288;52.194;5.676;2023-08-21T02:27:07;8.65;;;3.30;;
40541;SDS011;49288;52.194;5.676;2023-08-21T02:32:10;9.48;;;3.00;;
40541;SDS011;49288;52.194;5.676;2023-08-21T02:37:14;6.03;;;2.80;;
40541;SDS011;49288;52.194;5.676;2023-08-21T02:42:17;5.78;;;2.67;;
40541;SDS011;49288;52.194;5.676;2023-08-21T02:47:20;11.15;;;3.10;;
40541;SDS011;49288;52.194;5.676;2023-08-21T02:52:23;10.75;;;3.17;;
40541;SDS011;49288;52.194;5.676;2023-08-21T02:57:27;27.98;;;3.10;;
40541;SDS011;49288;52.194;5.676;2023-08-21T03:02:30;15.63;;;3.35;;
40541;SDS011;49288;52.194;5.676;2023-08-21T03:07:34;9.48;;;3.40;;
40541;SDS011;49288;52.194;5.676;2023-08-21T03:12:37;11.20;;;3.08;;
40541;SDS011;49288;52.194;5.676;2023-08-21T03:17:41;14.03;;;3.40;;
40541;SDS011;49288;52.194;5.676;2023-08-21T03:22:44;13.57;;;3.35;;
40541;SDS011;49288;52.194;5.676;2023-08-21T03:27:52;8.30;;;2.90;;
40541;SDS011;49288;52.194;5.676;2023-08-21T03:33:13;6.40;;;2.63;;
40541;SDS011;49288;52.194;5.676;2023-08-21T03:38:16;8.93;;;3.20;;
40541;SDS011;49288;52.194;5.676;2023-08-21T03:43:21;6.90;;;2.93;;
40541;SDS011;49288;52.194;5.676;2023-08-21T03:48:24;5.72;;;2.78;;
40541;SDS011;49288;52.194;5.676;2023-08-21T03:53:27;10.18;;;3.22;;
40541;SDS011;49288;52.194;5.676;2023-08-21T03:58:31;6.15;;;3.08;;
40541;SDS011;49288;52.194;5.676;2023-08-21T04:03:34;9.23;;;2.85;;
40541;SDS011;49288;52.194;5.676;2023-08-21T04:08:37;6.63;;;2.80;;
40541;SDS011;49288;52.194;5.676;2023-08-21T04:13:40;8.68;;;2.97;;
40541;SDS011;49288;52.194;5.676;2023-08-21T04:18:43;7.93;;;2.80;;
40541;SDS011;49288;52.194;5.676;2023-08-21T04:24:06;6.30;;;2.72;;
40541;SDS011;49288;52.194;5.676;2023-08-21T04:29:09;8.97;;;2.90;;
40541;SDS011;49288;52.194;5.676;2023-08-21T04:34:15;7.47;;;2.60;;
40541;SDS011;49288;52.194;5.676;2023-08-21T04:39:20;6.43;;;2.67;;
40541;SDS011;49288;52.194;5.676;2023-08-21T04:44:23;11.27;;;3.17;;
40541;SDS011;49288;52.194;5.676;2023-08-21T04:49:27;9.23;;;2.90;;
40541;SDS011;49288;52.194;5.676;2023-08-21T04:54:30;4.82;;;2.50;;
40541;SDS011;49288;52.194;5.676;2023-08-21T04:59:35;8.88;;;3.60;;
40541;SDS011;49288;52.194;5.676;2023-08-21T05:04:39;6.90;;;3.08;;
40541;SDS011;49288;52.194;5.676;2023-08-21T05:09:45;6.95;;;3.10;;
40541;SDS011;49288;52.194;5.676;2023-08-21T05:14:52;7.80;;;3.05;;
40541;SDS011;49288;52.194;5.676;2023-08-21T05:19:56;11.57;;;3.33;;
40541;SDS011;49288;52.194;5.676;2023-08-21T05:24:59;10.60;;;2.97;;
40541;SDS011;49288;52.194;5.676;2023-08-21T05:30:03;5.28;;;2.80;;
40541;SDS011;49288;52.194;5.676;2023-08-21T05:35:07;10.15;;;3.50;;
40541;SDS011;49288;52.194;5.676;2023-08-21T05:40:12;9.75;;;3.22;;
40541;SDS011;49288;52.194;5.676;2023-08-21T05:45:15;7.10;;;2.90;;
40541;SDS011;49288;52.194;5.676;2023-08-21T05:50:18;7.43;;;3.40;;
40541;SDS011;49288;52.194;5.676;2023-08-21T05:55:21;5.18;;;2.95;;
40541;SDS011;49288;52.194;5.676;2023-08-21T06:00:25;6.10;;;3.10;;
40541;SDS011;49288;52.194;5.676;2023-08-21T06:05:28;8.77;;;3.50;;
40541;SDS011;49288;52.194;5.676;2023-08-21T06:10:31;11.05;;;3.85;;
40541;SDS011;49288;52.194;5.676;2023-08-21T06:15:34;15.40;;;4.22;;
40541;SDS011;49288;52.194;5.676;2023-08-21T06:20:38;13.02;;;4.28;;
40541;SDS011;49288;52.194;5.676;2023-08-21T06:25:43;16.35;;;4.70;;
40541;SDS011;49288;52.194;5.676;2023-08-21T06:30:46;13.02;;;4.78;;
40541;SDS011;49288;52.194;5.676;2023-08-21T06:35:49;22.33;;;5.00;;
40541;SDS011;49288;52.194;5.676;2023-08-21T06:40:57;33.30;;;5.55;;
40541;SDS011;49288;52.194;5.676;2023-08-21T06:46:00;30.80;;;5.18;;
40541;SDS011;49288;52.194;5.676;2023-08-21T06:51:05;18.73;;;4.82;;
40541;SDS011;49288;52.194;5.676;2023-08-21T06:56:08;19.63;;;5.40;;
40541;SDS011;49288;52.194;5.676;2023-08-21T07:01:11;23.38;;;5.22;;
40541;SDS011;49288;52.194;5.676;2023-08-21T07:06:14;42.42;;;5.70;;
40541;SDS011;49288;52.194;5.676;2023-08-21T07:11:17;29.92;;;4.70;;
40541;SDS011;49288;52.194;5.676;2023-08-21T07:16:20;17.77;;;4.30;;
40541;SDS011;49288;52.194;5.676;2023-08-21T07:21:23;18.37;;;4.10;;
40541;SDS011;49288;52.194;5.676;2023-08-21T07:26:35;12.73;;;3.30;;
40541;SDS011;49288;52.194;5.676;2023-08-21T07:31:38;22.30;;;3.60;;
40541;SDS011;49288;52.194;5.676;2023-08-21T07:36:42;22.08;;;3.97;;
40541;SDS011;49288;52.194;5.676;2023-08-21T07:41:46;36.27;;;4.13;;
40541;SDS011;49288;52.194;5.676;2023-08-21T07:46:49;36.25;;;4.43;;
40541;SDS011;49288;52.194;5.676;2023-08-21T07:51:52;31.70;;;4.50;;
40541;SDS011;49288;52.194;5.676;2023-08-21T07:57:14;23.15;;;4.43;;
40541;SDS011;49288;52.194;5.676;2023-08-21T08:02:17;16.40;;;4.65;;
40541;SDS011;49288;52.194;5.676;2023-08-21T08:07:20;18.23;;;4.30;;
40541;SDS011;49288;52.194;5.676;2023-08-21T08:12:23;17.17;;;3.97;;
40541;SDS011;49288;52.194;5.676;2023-08-21T08:17:27;11.40;;;4.05;;
40541;SDS011;49288;52.194;5.676;2023-08-21T08:22:31;19.35;;;5.05;;
40541;SDS011;49288;52.194;5.676;2023-08-21T08:27:34;13.82;;;3.60;;
40541;SDS011;49288;52.194;5.676;2023-08-21T08:32:37;14.10;;;3.10;;
40541;SDS011;49288;52.194;5.676;2023-08-21T08:37:45;10.93;;;3.42;;
40541;SDS011;49288;52.194;5.676;2023-08-21T08:42:51;13.02;;;2.95;;
40541;SDS011;49288;52.194;5.676;2023-08-21T08:47:54;15.27;;;3.00;;
40541;SDS011;49288;52.194;5.676;2023-08-21T08:52:58;10.18;;;2.85;;
40541;SDS011;49288;52.194;5.676;2023-08-21T08:58:16;16.92;;;3.05;;
40541;SDS011;49288;52.194;5.676;2023-08-21T09:03:19;14.13;;;3.00;;
40541;SDS011;49288;52.194;5.676;2023-08-21T09:08:22;11.10;;;3.20;;
40541;SDS011;49288;52.194;5.676;2023-08-21T09:13:25;12.82;;;3.35;;
40541;SDS011;49288;52.194;5.676;2023-08-21T09:18:28;14.07;;;3.80;;
40541;SDS011;49288;52.194;5.676;2023-08-21T09:23:33;25.67;;;4.35;;
40541;SDS011;49288;52.194;5.676;2023-08-21T09:28:37;17.30;;;3.92;;
40541;SDS011;49288;52.194;5.676;2023-08-21T09:38:45;10.23;;;3.08;;
40541;SDS011;49288;52.194;5.676;2023-08-21T09:43:50;16.25;;;3.30;;
40541;SDS011;49288;52.194;5.676;2023-08-21T09:53:56;9.85;;;2.90;;
40541;SDS011;49288;52.194;5.676;2023-08-21T09:58:59;12.98;;;3.80;;
40541;SDS011;49288;52.194;5.676;2023-08-21T10:04:02;13.57;;;3.25;;
40541;SDS011;49288;52.194;5.676;2023-08-21T10:09:06;9.25;;;2.63;;
40541;SDS011;49288;52.194;5.676;2023-08-21T10:14:11;15.13;;;3.17;;
40541;SDS011;49288;52.194;5.676;2023-08-21T10:19:14;9.23;;;3.05;;
40541;SDS011;49288;52.194;5.676;2023-08-21T10:24:26;8.63;;;2.50;;
40541;SDS011;49288;52.194;5.676;2023-08-21T10:29:41;13.63;;;3.15;;
40541;SDS011;49288;52.194;5.676;2023-08-21T10:34:59;15.73;;;3.40;;
40541;SDS011;49288;52.194;5.676;2023-08-21T10:40:03;9.52;;;2.63;;
40541;SDS011;49288;52.194;5.676;2023-08-21T10:45:10;8.40;;;2.60;;
40541;SDS011;49288;52.194;5.676;2023-08-21T10:50:14;13.88;;;2.95;;
40541;SDS011;49288;52.194;5.676;2023-08-21T10:55:17;10.98;;;2.40;;
40541;SDS011;49288;52.194;5.676;2023-08-21T11:00:22;7.78;;;2.20;;
40541;SDS011;49288;52.194;5.676;2023-08-21T11:05:26;5.68;;;2.22;;
40541;SDS011;49288;52.194;5.676;2023-08-21T11:10:31;9.50;;;2.83;;
40541;SDS011;49288;52.194;5.676;2023-08-21T11:15:34;7.15;;;2.25;;
40541;SDS011;49288;52.194;5.676;2023-08-21T11:20:37;8.02;;;2.30;;
40541;SDS011;49288;52.194;5.676;2023-08-21T11:25:39;9.05;;;2.25;;
40541;SDS011;49288;52.194;5.676;2023-08-21T11:30:43;7.03;;;2.25;;
40541;SDS011;49288;52.194;5.676;2023-08-21T11:35:46;6.93;;;2.13;;
40541;SDS011;49288;52.194;5.676;2023-08-21T11:40:59;6.93;;;2.10;;
40541;SDS011;49288;52.194;5.676;2023-08-21T11:46:03;7.32;;;2.03;;
40541;SDS011;49288;52.194;5.676;2023-08-21T11:51:10;8.95;;;2.20;;
40541;SDS011;49288;52.194;5.676;2023-08-21T11:56:14;5.38;;;1.92;;
40541;SDS011;49288;52.194;5.676;2023-08-21T12:01:21;9.63;;;2.38;;
40541;SDS011;49288;52.194;5.676;2023-08-21T12:06:25;7.40;;;2.20;;
40541;SDS011;49288;52.194;5.676;2023-08-21T12:11:29;8.43;;;2.17;;
40541;SDS011;49288;52.194;5.676;2023-08-21T12:16:32;8.23;;;2.35;;
40541;SDS011;49288;52.194;5.676;2023-08-21T12:21:36;7.55;;;2.33;;
40541;SDS011;49288;52.194;5.676;2023-08-21T12:26:40;7.72;;;2.03;;
40541;SDS011;49288;52.194;5.676;2023-08-21T12:31:52;6.20;;;1.80;;
40541;SDS011;49288;52.194;5.676;2023-08-21T12:36:55;5.22;;;1.88;;
40541;SDS011;49288;52.194;5.676;2023-08-21T12:41:58;10.15;;;2.45;;
40541;SDS011;49288;52.194;5.676;2023-08-21T12:47:03;6.18;;;2.00;;
40541;SDS011;49288;52.194;5.676;2023-08-21T12:52:06;6.50;;;2.15;;
40541;SDS011;49288;52.194;5.676;2023-08-21T12:57:12;7.88;;;2.15;;
40541;SDS011;49288;52.194;5.676;2023-08-21T13:02:15;10.07;;;2.50;;
40541;SDS011;49288;52.194;5.676;2023-08-21T13:07:18;8.45;;;2.45;;
40541;SDS011;49288;52.194;5.676;2023-08-21T13:12:20;6.38;;;2.00;;
40541;SDS011;49288;52.194;5.676;2023-08-21T13:17:23;5.47;;;1.80;;
40541;SDS011;49288;52.194;5.676;2023-08-21T13:22:28;4.70;;;1.63;;
40541;SDS011;49288;52.194;5.676;2023-08-21T13:27:48;7.30;;;2.35;;
40541;SDS011;49288;52.194;5.676;2023-08-21T13:32:51;11.27;;;2.40;;
40541;SDS011;49288;52.194;5.676;2023-08-21T13:37:56;6.40;;;2.10;;
40541;SDS011;49288;52.194;5.676;2023-08-21T13:42:59;8.63;;;2.22;;
40541;SDS011;49288;52.194;5.676;2023-08-21T13:48:04;7.95;;;1.92;;
40541;SDS011;49288;52.194;5.676;2023-08-21T13:53:07;10.30;;;2.80;;
40541;SDS011;49288;52.194;5.676;2023-08-21T13:58:10;4.82;;;1.80;;
40541;SDS011;49288;52.194;5.676;2023-08-21T14:03:13;6.30;;;1.98;;
40541;SDS011;49288;52.194;5.676;2023-08-21T14:08:17;11.48;;;2.30;;
40541;SDS011;49288;52.194;5.676;2023-08-21T14:13:20;7.15;;;2.40;;
40541;SDS011;49288;52.194;5.676;2023-08-21T14:18:23;5.50;;;2.00;;
40541;SDS011;49288;52.194;5.676;2023-08-21T14:23:26;4.57;;;1.90;;
40541;SDS011;49288;52.194;5.676;2023-08-21T14:28:31;5.43;;;2.20;;
40541;SDS011;49288;52.194;5.676;2023-08-21T14:33:37;5.00;;;2.00;;
40541;SDS011;49288;52.194;5.676;2023-08-21T14:38:40;5.53;;;2.10;;
40541;SDS011;49288;52.194;5.676;2023-08-21T14:43:44;10.88;;;2.38;;
40541;SDS011;49288;52.194;5.676;2023-08-21T14:48:53;6.00;;;2.20;;
40541;SDS011;49288;52.194;5.676;2023-08-21T14:53:57;8.73;;;2.38;;
40541;SDS011;49288;52.194;5.676;2023-08-21T14:59:00;11.00;;;2.42;;
40541;SDS011;49288;52.194;5.676;2023-08-21T15:04:03;8.23;;;2.05;;
40541;SDS011;49288;52.194;5.676;2023-08-21T15:09:06;9.05;;;2.28;;
40541;SDS011;49288;52.194;5.676;2023-08-21T15:14:10;8.05;;;2.30;;
40541;SDS011;49288;52.194;5.676;2023-08-21T15:19:14;5.55;;;2.13;;
40541;SDS011;49288;52.194;5.676;2023-08-21T15:24:17;8.23;;;2.33;;
40541;SDS011;49288;52.194;5.676;2023-08-21T15:29:20;5.28;;;1.90;;
40541;SDS011;49288;52.194;5.676;2023-08-21T15:34:23;3.78;;;1.70;;
40541;SDS011;49288;52.194;5.676;2023-08-21T15:39:30;6.00;;;1.98;;
40541;SDS011;49288;52.194;5.676;2023-08-21T15:44:34;9.95;;;2.92;;
40541;SDS011;49288;52.194;5.676;2023-08-21T15:49:38;4.25;;;1.77;;
40541;SDS011;49288;52.194;5.676;2023-08-21T15:54:41;6.82;;;1.75;;
40541;SDS011;49288;52.194;5.676;2023-08-21T15:59:44;12.93;;;2.17;;
40541;SDS011;49288;52.194;5.676;2023-08-21T16:04:47;7.68;;;1.70;;
40541;SDS011;49288;52.194;5.676;2023-08-21T16:09:51;7.72;;;1.88;;
40541;SDS011;49288;52.194;5.676;2023-08-21T16:14:54;5.35;;;1.60;;
40541;SDS011;49288;52.194;5.676;2023-08-21T16:19:57;4.70;;;1.83;;
40541;SDS011;49288;52.194;5.676;2023-08-21T16:25:03;5.05;;;1.98;;
40541;SDS011;49288;52.194;5.676;2023-08-21T16:30:07;8.45;;;2.50;;
40541;SDS011;49288;52.194;5.676;2023-08-21T16:35:11;18.88;;;2.45;;
40541;SDS011;49288;52.194;5.676;2023-08-21T16:40:14;7.45;;;2.05;;
40541;SDS011;49288;52.194;5.676;2023-08-21T16:45:17;8.10;;;2.30;;
40541;SDS011;49288;52.194;5.676;2023-08-21T16:50:20;7.28;;;2.05;;
40541;SDS011;49288;52.194;5.676;2023-08-21T16:55:23;5.45;;;1.98;;
40541;SDS011;49288;52.194;5.676;2023-08-21T17:00:25;8.50;;;2.58;;
40541;SDS011;49288;52.194;5.676;2023-08-21T17:05:28;5.53;;;2.22;;
40541;SDS011;49288;52.194;5.676;2023-08-21T17:15:35;7.57;;;2.00;;
40541;SDS011;49288;52.194;5.676;2023-08-21T17:25:41;6.43;;;2.10;;
40541;SDS011;49288;52.194;5.676;2023-08-21T17:30:44;9.40;;;2.20;;
40541;SDS011;49288;52.194;5.676;2023-08-21T17:35:46;4.43;;;1.88;;
40541;SDS011;49288;52.194;5.676;2023-08-21T17:40:50;11.40;;;2.45;;
40541;SDS011;49288;52.194;5.676;2023-08-21T17:45:53;6.20;;;2.22;;
40541;SDS011;49288;52.194;5.676;2023-08-21T17:50:56;7.78;;;2.35;;
40541;SDS011;49288;52.194;5.676;2023-08-21T17:56:01;6.57;;;2.50;;
40541;SDS011;49288;52.194;5.676;2023-08-21T18:01:05;5.00;;;2.22;;
40541;SDS011;49288;52.194;5.676;2023-08-21T18:11:11;5.15;;;2.20;;
40541;SDS011;49288;52.194;5.676;2023-08-21T18:16:14;6.60;;;2.60;;
40541;SDS011;49288;52.194;5.676;2023-08-21T18:26:22;7.93;;;2.35;;
40541;SDS011;49288;52.194;5.676;2023-08-21T18:31:25;4.85;;;2.20;;
40541;SDS011;49288;52.194;5.676;2023-08-21T18:36:29;6.85;;;2.75;;
40541;SDS011;49288;52.194;5.676;2023-08-21T18:41:36;8.57;;;2.38;;
40541;SDS011;49288;52.194;5.676;2023-08-21T18:51:45;6.00;;;2.50;;
40541;SDS011;49288;52.194;5.676;2023-08-21T18:56:49;11.13;;;2.78;;
40541;SDS011;49288;52.194;5.676;2023-08-21T19:01:53;6.45;;;2.65;;
40541;SDS011;49288;52.194;5.676;2023-08-21T19:06:56;10.85;;;2.63;;
40541;SDS011;49288;52.194;5.676;2023-08-21T19:12:08;6.45;;;2.30;;
40541;SDS011;49288;52.194;5.676;2023-08-21T19:17:11;5.43;;;2.83;;
40541;SDS011;49288;52.194;5.676;2023-08-21T19:22:14;9.32;;;2.58;;
40541;SDS011;49288;52.194;5.676;2023-08-21T19:27:17;13.47;;;3.07;;
40541;SDS011;49288;52.194;5.676;2023-08-21T19:32:20;9.95;;;2.72;;
40541;SDS011;49288;52.194;5.676;2023-08-21T19:37:23;6.63;;;2.33;;
40541;SDS011;49288;52.194;5.676;2023-08-21T19:42:26;7.13;;;2.60;;
40541;SDS011;49288;52.194;5.676;2023-08-21T19:47:31;7.15;;;2.67;;
40541;SDS011;49288;52.194;5.676;2023-08-21T19:52:34;8.60;;;2.77;;
40541;SDS011;49288;52.194;5.676;2023-08-21T19:57:37;7.47;;;2.73;;
40541;SDS011;49288;52.194;5.676;2023-08-21T20:02:40;11.85;;;3.17;;
40541;SDS011;49288;52.194;5.676;2023-08-21T20:07:43;6.68;;;3.13;;
40541;SDS011;49288;52.194;5.676;2023-08-21T20:17:52;9.02;;;3.35;;
40541;SDS011;49288;52.194;5.676;2023-08-21T20:22:55;7.40;;;2.93;;
40541;SDS011;49288;52.194;5.676;2023-08-21T20:28:00;8.07;;;2.95;;
40541;SDS011;49288;52.194;5.676;2023-08-21T20:33:03;8.37;;;3.10;;
40541;SDS011;49288;52.194;5.676;2023-08-21T20:38:07;8.00;;;3.28;;
40541;SDS011;49288;52.194;5.676;2023-08-21T20:43:10;9.23;;;2.80;;
40541;SDS011;49288;52.194;5.676;2023-08-21T20:48:13;6.03;;;3.00;;
40541;SDS011;49288;52.194;5.676;2023-08-21T20:53:16;10.90;;;3.25;;
40541;SDS011;49288;52.194;5.676;2023-08-21T20:58:19;6.90;;;2.92;;
40541;SDS011;49288;52.194;5.676;2023-08-21T21:03:22;8.20;;;3.00;;
40541;SDS011;49288;52.194;5.676;2023-08-21T21:08:25;6.83;;;3.10;;
40541;SDS011;49288;52.194;5.676;2023-08-21T21:13:28;13.55;;;3.20;;
40541;SDS011;49288;52.194;5.676;2023-08-21T21:18:31;5.63;;;3.03;;
40541;SDS011;49288;52.194;5.676;2023-08-21T21:23:36;5.88;;;2.90;;
40541;SDS011;49288;52.194;5.676;2023-08-21T21:28:40;6.40;;;3.10;;
40541;SDS011;49288;52.194;5.676;2023-08-21T21:33:43;7.38;;;3.42;;
40541;SDS011;49288;52.194;5.676;2023-08-21T21:38:48;11.55;;;3.25;;
40541;SDS011;49288;52.194;5.676;2023-08-21T21:43:51;6.30;;;2.95;;
40541;SDS011;49288;52.194;5.676;2023-08-21T21:48:55;7.10;;;3.20;;
40541;SDS011;49288;52.194;5.676;2023-08-21T21:53:59;11.70;;;3.47;;
40541;SDS011;49288;52.194;5.676;2023-08-21T21:59:02;16.20;;;4.03;;
40541;SDS011;49288;52.194;5.676;2023-08-21T22:04:05;10.30;;;3.63;;
40541;SDS011;49288;52.194;5.676;2023-08-21T22:09:08;7.97;;;3.47;;
40541;SDS011;49288;52.194;5.676;2023-08-21T22:14:12;8.52;;;3.50;;
40541;SDS011;49288;52.194;5.676;2023-08-21T22:19:15;8.93;;;3.22;;
40541;SDS011;49288;52.194;5.676;2023-08-21T22:24:18;9.63;;;3.27;;
40541;SDS011;49288;52.194;5.676;2023-08-21T22:29:21;9.63;;;3.83;;
40541;SDS011;49288;52.194;5.676;2023-08-21T22:34:24;7.07;;;3.53;;
40541;SDS011;49288;52.194;5.676;2023-08-21T22:39:27;6.93;;;3.40;;
40541;SDS011;49288;52.194;5.676;2023-08-21T22:44:32;8.38;;;3.35;;
40541;SDS011;49288;52.194;5.676;2023-08-21T22:49:35;8.07;;;3.30;;
40541;SDS011;49288;52.194;5.676;2023-08-21T22:54:38;6.82;;;3.53;;
40541;SDS011;49288;52.194;5.676;2023-08-21T22:59:41;9.55;;;3.55;;
40541;SDS011;49288;52.194;5.676;2023-08-21T23:04:44;8.52;;;3.45;;
40541;SDS011;49288;52.194;5.676;2023-08-21T23:09:50;8.48;;;3.17;;
40541;SDS011;49288;52.194;5.676;2023-08-21T23:14:53;8.13;;;4.10;;
40541;SDS011;49288;52.194;5.676;2023-08-21T23:19:56;11.52;;;3.50;;
40541;SDS011;49288;52.194;5.676;2023-08-21T23:24:59;6.82;;;3.47;;
40541;SDS011;49288;52.194;5.676;2023-08-21T23:30:02;13.50;;;3.63;;
40541;SDS011;49288;52.194;5.676;2023-08-21T23:35:07;6.40;;;3.10;;
40541;SDS011;49288;52.194;5.676;2023-08-21T23:40:12;6.35;;;3.55;;
40541;SDS011;49288;52.194;5.676;2023-08-21T23:45:18;18.45;;;4.10;;
40541;SDS011;49288;52.194;5.676;2023-08-21T23:50:20;12.43;;;3.55;;
40541;SDS011;49288;52.194;5.676;2023-08-21T23:55:23;11.85;;;3.88;;
